createdAt,value
2022-09-28T00:01:21.672Z,11.06
2022-09-28T00:03:51.473Z,11.19
2022-09-28T00:06:21.171Z,10.94
2022-09-28T00:08:50.513Z,10.70
2022-09-28T00:11:19.289Z,11.16
2022-09-28T00:13:52.692Z,11.52
2022-09-28T00:16:23.954Z,11.57
2022-09-28T00:18:51.660Z,11.05
2022-09-28T00:21:23.831Z,10.59
2022-09-28T00:24:11.369Z,11.01
2022-09-28T00:26:52.147Z,11.04
2022-09-28T00:29:24.865Z,11.56
2022-09-28T00:32:03.413Z,12.18
2022-09-28T00:34:36.647Z,12.06
2022-09-28T00:37:05.724Z,12.13
2022-09-28T00:39:34.373Z,12.11
2022-09-28T00:42:03.235Z,12.46
2022-09-28T00:44:36.792Z,12.17
2022-09-28T00:47:31.514Z,12.25
2022-09-28T00:50:21.935Z,12.18
2022-09-28T00:52:53.274Z,11.76
2022-09-28T00:55:56.567Z,11.96
2022-09-28T00:58:29.751Z,11.81
2022-09-28T01:00:58.410Z,11.61
2022-09-28T01:03:27.124Z,11.43
2022-09-28T01:05:56.512Z,11.61
2022-09-28T01:08:24.844Z,11.67
2022-09-28T01:10:52.811Z,12.13
2022-09-28T01:13:20.781Z,11.89
2022-09-28T01:16:03.890Z,11.80
2022-09-28T01:18:56.223Z,12.00
2022-09-28T01:21:24.391Z,11.92
2022-09-28T01:24:14.946Z,12.02
2022-09-28T01:27:25.219Z,12.02
2022-09-28T01:30:01.738Z,11.65
2022-09-28T01:32:36.740Z,11.46
2022-09-28T01:35:11.896Z,10.94
2022-09-28T01:37:52.251Z,11.23
2022-09-28T01:40:22.095Z,11.72
2022-09-28T01:42:53.635Z,12.26
2022-09-28T01:45:27.545Z,12.04
2022-09-28T01:47:58.455Z,12.31
2022-09-28T01:50:29.085Z,11.92
2022-09-28T01:53:04.461Z,12.01
2022-09-28T01:55:35.054Z,11.25
2022-09-28T01:58:38.808Z,11.43
2022-09-28T02:01:13.133Z,12.19
2022-09-28T02:03:52.736Z,11.80
2022-09-28T02:06:28.047Z,11.99
2022-09-28T02:08:59.422Z,11.84
2022-09-28T02:11:28.925Z,11.96
2022-09-28T02:14:01.079Z,11.68
2022-09-28T02:16:28.701Z,12.15
2022-09-28T02:18:56.104Z,11.67
2022-09-28T02:21:31.825Z,11.41
2022-09-28T02:24:03.697Z,11.89
2022-09-28T02:26:34.794Z,11.95
2022-09-28T02:29:02.292Z,11.40
2022-09-28T02:31:31.183Z,11.67
2022-09-28T02:33:59.151Z,11.70
2022-09-28T02:36:27.675Z,11.81
2022-09-28T02:38:55.471Z,11.50
2022-09-28T02:42:00.543Z,12.01
2022-09-28T02:45:08.527Z,11.76
2022-09-28T02:47:55.490Z,11.29
2022-09-28T02:50:52.436Z,11.68
2022-09-28T02:53:26.215Z,11.77
2022-09-28T02:56:19.458Z,12.18
2022-09-28T02:59:15.045Z,12.55
2022-09-28T03:02:24.986Z,12.54
2022-09-28T03:05:17.001Z,12.33
2022-09-28T03:08:02.379Z,12.78
2022-09-28T03:10:40.985Z,12.39
2022-09-28T03:13:09.218Z,12.04
2022-09-28T03:15:36.832Z,12.26
2022-09-28T03:18:04.592Z,11.97
2022-09-28T03:20:33.615Z,12.16
2022-09-28T03:25:49.522Z,12.47
2022-09-28T03:28:17.253Z,12.54
2022-09-28T03:30:44.697Z,12.33
2022-09-28T03:33:12.337Z,12.03
2022-09-28T03:35:39.937Z,12.30
2022-09-28T03:38:07.582Z,12.02
2022-09-28T03:40:35.671Z,11.54
2022-09-28T03:43:03.228Z,12.04
2022-09-28T03:45:30.678Z,11.58
2022-09-28T03:47:58.737Z,12.03
2022-09-28T03:50:26.294Z,12.39
2022-09-28T03:52:53.659Z,12.38
2022-09-28T03:55:21.260Z,12.29
2022-09-28T03:57:57.449Z,12.27
2022-09-28T04:00:25.374Z,12.08
2022-09-28T04:02:53.767Z,11.45
2022-09-28T04:05:21.140Z,11.43
2022-09-28T04:07:48.495Z,11.52
2022-09-28T04:10:16.431Z,11.41
2022-09-28T04:12:44.829Z,11.74
2022-09-28T04:15:12.220Z,11.24
2022-09-28T04:17:40.330Z,10.76
2022-09-28T04:20:09.689Z,11.76
2022-09-28T04:22:40.107Z,11.44
2022-09-28T04:25:08.600Z,11.37
2022-09-28T04:27:56.910Z,11.40
2022-09-28T04:30:24.830Z,11.69
2022-09-28T04:32:53.149Z,11.76
2022-09-28T04:35:20.606Z,10.63
2022-09-28T04:37:48.414Z,10.66
2022-09-28T04:40:16.045Z,10.40
2022-09-28T04:42:43.700Z,10.77
2022-09-28T04:45:11.412Z,10.15
2022-09-28T04:47:39.374Z,10.16
2022-09-28T04:50:08.536Z,10.77
2022-09-28T04:52:37.666Z,11.06
2022-09-28T04:55:06.320Z,11.33
2022-09-28T04:57:35.187Z,11.86
2022-09-28T05:00:03.762Z,11.60
2022-09-28T05:02:33.618Z,11.86
2022-09-28T05:05:03.465Z,11.92
2022-09-28T05:07:32.854Z,11.73
2022-09-28T05:10:00.655Z,11.72
2022-09-28T05:12:28.358Z,11.81
2022-09-28T05:14:56.543Z,11.72
2022-09-28T05:17:23.929Z,11.83
2022-09-28T05:19:53.619Z,11.67
2022-09-28T05:22:21.022Z,11.39
2022-09-28T05:24:48.391Z,11.47
2022-09-28T05:27:16.107Z,11.58
2022-09-28T05:29:45.514Z,11.52
2022-09-28T05:32:19.825Z,11.52
2022-09-28T05:34:47.635Z,11.29
2022-09-28T05:37:15.710Z,11.38
2022-09-28T05:39:43.040Z,11.26
2022-09-28T05:42:10.692Z,11.16
2022-09-28T05:44:38.521Z,11.11
2022-09-28T05:47:06.087Z,11.92
2022-09-28T05:49:33.758Z,12.95
2022-09-28T05:52:01.389Z,13.50
2022-09-28T05:54:28.883Z,14.32
2022-09-28T05:56:56.871Z,14.67
2022-09-28T05:59:24.220Z,14.61
2022-09-28T06:01:51.562Z,14.46
2022-09-28T06:04:19.291Z,14.60
2022-09-28T06:06:48.401Z,14.72
2022-09-28T06:09:16.533Z,14.81
2022-09-28T06:11:44.317Z,14.90
2022-09-28T06:14:13.890Z,14.47
2022-09-28T06:16:43.832Z,15.25
2022-09-28T06:19:12.571Z,15.32
2022-09-28T06:21:39.943Z,15.56
2022-09-28T06:24:07.876Z,15.49
2022-09-28T06:26:36.597Z,15.48
2022-09-28T06:29:05.008Z,15.88
2022-09-28T06:31:32.446Z,15.89
2022-09-28T06:34:02.126Z,15.90
2022-09-28T06:36:31.352Z,15.62
2022-09-28T06:38:58.942Z,15.85
2022-09-28T06:41:26.770Z,15.83
2022-09-28T06:43:54.125Z,16.08
2022-09-28T06:46:23.162Z,15.98
2022-09-28T06:48:52.916Z,16.49
2022-09-28T06:51:20.724Z,16.55
2022-09-28T06:53:49.021Z,15.85
2022-09-28T06:56:18.025Z,15.98
2022-09-28T06:58:45.381Z,16.20
2022-09-28T07:01:12.834Z,16.25
2022-09-28T07:03:40.900Z,16.37
2022-09-28T07:06:11.664Z,16.47
2022-09-28T07:08:40.110Z,16.05
2022-09-28T07:11:08.044Z,16.86
2022-09-28T07:13:49.733Z,16.57
2022-09-28T07:16:22.742Z,16.59
2022-09-28T07:18:53.282Z,15.87
2022-09-28T07:21:29.169Z,15.59
2022-09-28T07:23:57.224Z,16.16
2022-09-28T07:26:26.154Z,17.05
2022-09-28T07:28:55.904Z,15.81
2022-09-28T07:31:25.283Z,16.88
2022-09-28T07:33:54.046Z,17.23
2022-09-28T07:36:22.801Z,16.59
2022-09-28T07:38:51.349Z,16.80
2022-09-28T07:41:27.013Z,17.53
2022-09-28T07:43:55.506Z,17.80
2022-09-28T07:46:23.171Z,17.50
2022-09-28T07:48:51.818Z,17.71
2022-09-28T07:51:21.268Z,17.49
2022-09-28T07:53:50.130Z,17.76
2022-09-28T07:56:18.286Z,17.74
2022-09-28T07:58:47.293Z,17.61
2022-09-28T08:01:17.737Z,18.04
2022-09-28T08:03:47.199Z,17.88
2022-09-28T08:06:17.177Z,17.88
2022-09-28T08:08:45.257Z,17.83
2022-09-28T08:11:16.684Z,17.98
2022-09-28T08:13:45.715Z,17.63
2022-09-28T08:16:13.873Z,17.15
2022-09-28T08:18:41.806Z,17.62
2022-09-28T08:21:28.665Z,17.16
2022-09-28T08:23:56.424Z,17.61
2022-09-28T08:26:23.798Z,18.02
2022-09-28T08:28:51.632Z,17.92
2022-09-28T08:31:27.304Z,17.96
2022-09-28T08:33:56.050Z,17.55
2022-09-28T08:36:28.314Z,17.86
2022-09-28T08:38:57.053Z,17.95
2022-09-28T08:41:35.139Z,17.70
2022-09-28T08:44:14.649Z,17.86
2022-09-28T08:46:46.178Z,17.63
2022-09-28T08:49:30.363Z,17.75
2022-09-28T08:52:13.783Z,17.72
2022-09-28T08:54:46.303Z,17.60
2022-09-28T08:57:25.053Z,17.67
2022-09-28T08:59:56.051Z,17.77
2022-09-28T09:02:33.791Z,17.48
2022-09-28T09:05:06.121Z,17.55
2022-09-28T09:07:59.537Z,17.71
2022-09-28T09:11:03.211Z,17.72
2022-09-28T09:13:37.209Z,17.62
2022-09-28T09:16:24.259Z,17.33
2022-09-28T09:18:56.542Z,17.74
2022-09-28T09:21:30.094Z,17.57
2022-09-28T09:24:03.723Z,17.45
2022-09-28T09:26:39.500Z,17.52
2022-09-28T09:29:16.115Z,17.83
2022-09-28T09:32:05.478Z,18.09
2022-09-28T09:34:38.028Z,17.68
2022-09-28T09:37:21.702Z,18.20
2022-09-28T09:39:55.777Z,18.71
2022-09-28T09:42:35.727Z,18.76
2022-09-28T09:45:10.624Z,18.72
2022-09-28T09:47:43.023Z,18.51
2022-09-28T09:50:40.765Z,18.54
2022-09-28T09:53:28.823Z,18.76
2022-09-28T09:56:01.482Z,18.72
2022-09-28T09:58:38.847Z,18.60
2022-09-28T10:01:11.115Z,19.03
2022-09-28T10:03:46.229Z,19.20
2022-09-28T10:06:22.368Z,18.71
2022-09-28T10:08:53.861Z,18.16
2022-09-28T10:11:32.895Z,17.79
2022-09-28T10:14:00.494Z,17.99
2022-09-28T10:16:33.157Z,17.81
2022-09-28T10:19:01.447Z,17.80
2022-09-28T10:21:41.263Z,17.71
2022-09-28T10:24:16.697Z,18.05
2022-09-28T10:26:47.301Z,18.08
2022-09-28T10:29:23.292Z,17.95
2022-09-28T10:31:52.400Z,17.98
2022-09-28T10:34:30.565Z,18.44
2022-09-28T10:37:01.562Z,18.21
2022-09-28T10:39:33.038Z,18.25
2022-09-28T10:42:04.277Z,17.86
2022-09-28T10:44:33.818Z,18.16
2022-09-28T10:47:03.376Z,18.57
2022-09-28T10:49:44.356Z,18.79
2022-09-28T10:52:40.862Z,18.90
2022-09-28T10:55:36.971Z,18.76
2022-09-28T10:58:25.321Z,18.34
2022-09-28T11:00:53.259Z,17.34
2022-09-28T11:03:26.749Z,17.80
2022-09-28T11:06:02.387Z,17.69
2022-09-28T11:08:42.183Z,17.97
2022-09-28T11:11:14.128Z,18.40
2022-09-28T11:13:50.724Z,18.26
2022-09-28T11:16:28.782Z,18.38
2022-09-28T11:19:19.222Z,18.30
2022-09-28T11:21:47.024Z,18.69
2022-09-28T11:24:18.907Z,19.26
2022-09-28T11:26:56.500Z,19.11
2022-09-28T11:29:43.291Z,18.77
2022-09-28T11:32:15.633Z,18.96
2022-09-28T11:34:59.097Z,19.05
2022-09-28T11:37:59.496Z,19.12
2022-09-28T11:40:56.821Z,18.91
2022-09-28T11:43:41.901Z,19.23
2022-09-28T11:46:17.651Z,18.72
2022-09-28T11:48:49.437Z,18.65
2022-09-28T11:51:21.752Z,18.65
2022-09-28T11:54:05.172Z,18.35
2022-09-28T11:56:39.225Z,18.62
2022-09-28T11:59:12.097Z,18.18
2022-09-28T12:01:44.214Z,18.41
2022-09-28T12:04:20.745Z,18.39
2022-09-28T12:06:51.847Z,18.55
2022-09-28T12:09:25.390Z,18.75
2022-09-28T12:11:56.612Z,18.49
2022-09-28T12:14:29.771Z,18.38
2022-09-28T12:17:19.337Z,18.70
2022-09-28T12:19:48.932Z,18.75
2022-09-28T12:22:21.385Z,18.54
2022-09-28T12:24:54.552Z,19.08
2022-09-28T12:27:28.283Z,18.62
2022-09-28T12:30:25.276Z,18.44
2022-09-28T12:32:57.085Z,18.58
2022-09-28T12:36:01.827Z,18.60
2022-09-28T12:38:54.169Z,18.85
2022-09-28T12:41:50.765Z,19.09
2022-09-28T12:44:48.096Z,18.33
2022-09-28T12:47:30.591Z,18.32
2022-09-28T12:53:25.841Z,18.64
2022-09-28T12:56:00.701Z,18.57
2022-09-28T12:58:31.211Z,18.60
2022-09-28T13:01:08.485Z,18.72
2022-09-28T13:03:54.793Z,18.76
2022-09-28T13:06:28.746Z,19.08
2022-09-28T13:09:26.624Z,19.09
2022-09-28T13:12:19.180Z,18.97
2022-09-28T13:15:08.815Z,19.19
2022-09-28T13:18:07.643Z,18.91
2022-09-28T13:20:51.747Z,18.77
2022-09-28T13:23:20.615Z,18.75
2022-09-28T13:26:38.013Z,18.78
2022-09-28T13:29:11.471Z,18.54
2022-09-28T13:31:46.698Z,18.53
2022-09-28T13:34:20.562Z,18.18
2022-09-28T13:37:25.609Z,18.18
2022-09-28T13:39:59.804Z,18.11
2022-09-28T13:42:30.387Z,18.56
2022-09-28T13:45:22.325Z,18.13
2022-09-28T13:47:59.810Z,18.88
2022-09-28T13:51:06.353Z,18.24
2022-09-28T13:53:45.753Z,18.64
2022-09-28T13:56:35.023Z,18.14
2022-09-28T13:59:34.777Z,18.06
2022-09-28T14:02:23.816Z,17.86
2022-09-28T14:04:58.708Z,18.17
2022-09-28T14:07:35.701Z,17.88
2022-09-28T14:10:25.834Z,18.02
2022-09-28T14:12:54.091Z,18.23
2022-09-28T14:15:37.037Z,17.94
2022-09-28T14:18:11.262Z,17.89
2022-09-28T14:20:55.143Z,17.77
2022-09-28T14:23:41.560Z,18.00
2022-09-28T14:26:11.925Z,18.06
2022-09-28T14:28:54.557Z,17.45
2022-09-28T14:31:27.643Z,17.82
2022-09-28T14:34:08.074Z,17.83
2022-09-28T14:36:59.917Z,17.87
2022-09-28T14:39:50.984Z,18.02
2022-09-28T14:42:22.410Z,18.34
2022-09-28T14:45:05.375Z,18.19
2022-09-28T14:47:34.993Z,18.02
2022-09-28T14:50:21.583Z,18.70
2022-09-28T14:52:51.761Z,18.41
2022-09-28T14:55:24.330Z,17.86
2022-09-28T14:57:53.663Z,18.08
2022-09-28T15:00:22.906Z,17.97
2022-09-28T15:02:52.675Z,17.75
2022-09-28T15:05:24.382Z,18.14
2022-09-28T15:07:53.663Z,17.89
2022-09-28T15:10:31.430Z,17.93
2022-09-28T15:13:01.409Z,17.56
2022-09-28T15:15:35.643Z,17.58
2022-09-28T15:18:25.609Z,17.53
2022-09-28T15:20:53.684Z,17.60
2022-09-28T15:23:35.671Z,17.63
2022-09-28T15:26:04.497Z,17.59
2022-09-28T15:28:34.528Z,17.68
2022-09-28T15:31:04.085Z,16.97
2022-09-28T15:33:53.531Z,17.22
2022-09-28T15:36:25.971Z,17.49
2022-09-28T15:39:22.063Z,17.60
2022-09-28T15:41:50.446Z,17.63
2022-09-28T15:44:30.396Z,17.99
2022-09-28T15:47:25.186Z,17.67
2022-09-28T15:50:01.163Z,17.72
2022-09-28T15:52:36.107Z,17.35
2022-09-28T15:55:19.957Z,17.21
2022-09-28T15:57:47.508Z,17.12
2022-09-28T16:00:21.423Z,17.09
2022-09-28T16:03:23.061Z,17.65
2022-09-28T16:05:57.693Z,17.57
2022-09-28T16:08:42.963Z,16.97
2022-09-28T16:11:19.418Z,17.60
2022-09-28T16:14:20.384Z,16.73
2022-09-28T16:16:49.423Z,16.82
2022-09-28T16:19:30.419Z,17.00
2022-09-28T16:22:03.728Z,17.11
2022-09-28T16:24:32.751Z,16.68
2022-09-28T16:27:06.100Z,17.22
2022-09-28T16:29:41.992Z,17.11
2022-09-28T16:32:35.684Z,16.50
2022-09-28T16:35:09.202Z,16.59
2022-09-28T16:37:37.446Z,16.53
2022-09-28T16:40:05.498Z,16.65
2022-09-28T16:42:32.883Z,16.96
2022-09-28T16:45:05.060Z,16.40
2022-09-28T16:47:34.139Z,16.69
2022-09-28T16:50:02.543Z,16.43
2022-09-28T16:52:50.199Z,17.22
2022-09-28T16:58:06.749Z,17.00
2022-09-28T17:00:34.512Z,16.72
2022-09-28T17:03:02.254Z,16.49
2022-09-28T17:05:29.671Z,16.18
2022-09-28T17:08:01.336Z,16.06
2022-09-28T17:10:56.212Z,16.39
2022-09-28T17:13:33.745Z,16.23
2022-09-28T17:16:03.201Z,16.50
2022-09-28T17:18:31.963Z,16.62
2022-09-28T17:21:04.051Z,16.60
2022-09-28T17:23:32.016Z,16.38
2022-09-28T17:26:01.515Z,16.33
2022-09-28T17:28:32.133Z,16.38
2022-09-28T17:31:00.087Z,15.90
2022-09-28T17:33:28.624Z,16.36
2022-09-28T17:36:00.718Z,16.39
2022-09-28T17:38:28.706Z,16.22
2022-09-28T17:40:56.663Z,16.50
2022-09-28T17:43:24.083Z,16.11
2022-09-28T17:45:51.871Z,15.81
2022-09-28T17:48:24.348Z,15.81
2022-09-28T17:50:52.012Z,16.22
2022-09-28T17:53:19.663Z,16.48
2022-09-28T17:55:47.237Z,16.31
2022-09-28T17:58:20.499Z,16.29
2022-09-28T18:00:49.622Z,16.09
2022-09-28T18:03:22.257Z,15.83
2022-09-28T18:05:52.690Z,15.82
2022-09-28T18:08:21.235Z,15.67
2022-09-28T18:10:49.865Z,15.81
2022-09-28T18:13:17.374Z,15.87
2022-09-28T18:15:45.249Z,15.95
2022-09-28T18:18:13.037Z,16.11
2022-09-28T18:20:41.387Z,16.20
2022-09-28T18:23:09.116Z,16.28
2022-09-28T18:25:43.419Z,16.25
2022-09-28T18:28:11.931Z,15.53
2022-09-28T18:30:41.862Z,15.93
2022-09-28T18:33:10.034Z,15.96
2022-09-28T18:35:37.918Z,15.48
2022-09-28T18:38:06.233Z,16.21
2022-09-28T18:40:35.663Z,15.73
2022-09-28T18:43:03.894Z,15.77
2022-09-28T18:45:31.498Z,15.90
2022-09-28T18:47:59.759Z,15.80
2022-09-28T18:50:27.617Z,16.01
2022-09-28T18:52:55.040Z,15.64
2022-09-28T18:55:22.758Z,15.38
2022-09-28T18:57:51.464Z,15.72
2022-09-28T19:00:18.844Z,15.86
2022-09-28T19:02:46.407Z,15.30
2022-09-28T19:05:14.113Z,15.38
2022-09-28T19:07:41.450Z,15.70
2022-09-28T19:10:08.905Z,15.83
2022-09-28T19:12:36.512Z,15.78
2022-09-28T19:15:04.670Z,15.71
2022-09-28T19:17:33.183Z,15.76
2022-09-28T19:20:00.929Z,15.66
2022-09-28T19:22:30.593Z,15.57
2022-09-28T19:24:57.939Z,15.46
2022-09-28T19:27:25.567Z,15.28
2022-09-28T19:29:52.900Z,15.56
2022-09-28T19:32:20.212Z,15.42
2022-09-28T19:34:48.620Z,14.94
2022-09-28T19:37:15.966Z,15.38
2022-09-28T19:39:43.306Z,15.17
2022-09-28T19:42:10.907Z,15.17
2022-09-28T19:44:39.367Z,15.42
2022-09-28T19:47:08.729Z,15.16
2022-09-28T19:49:37.763Z,15.37
2022-09-28T19:52:15.596Z,15.47
2022-09-28T19:54:56.648Z,15.44
2022-09-28T19:57:27.727Z,15.27
2022-09-28T20:00:00.900Z,15.30
2022-09-28T20:02:33.956Z,15.42
2022-09-28T20:05:01.652Z,15.70
2022-09-28T20:07:32.772Z,15.59
2022-09-28T20:10:00.341Z,15.36
2022-09-28T20:12:27.918Z,15.68
2022-09-28T20:14:55.251Z,15.67
2022-09-28T20:17:22.561Z,15.58
2022-09-28T20:19:51.744Z,15.38
2022-09-28T20:22:20.033Z,15.33
2022-09-28T20:24:47.369Z,15.38
2022-09-28T20:27:14.998Z,15.49
2022-09-28T20:29:43.076Z,15.43
2022-09-28T20:32:12.233Z,15.51
2022-09-28T20:34:39.866Z,15.43
2022-09-28T20:37:07.221Z,15.25
2022-09-28T20:39:34.554Z,15.42
2022-09-28T20:42:02.833Z,15.42
2022-09-28T20:44:30.168Z,15.35
2022-09-28T20:46:57.495Z,15.32
2022-09-28T20:49:27.207Z,15.29
2022-09-28T20:51:54.669Z,15.11
2022-09-28T20:54:22.006Z,15.34
2022-09-28T20:56:49.604Z,15.19
2022-09-28T20:59:17.177Z,15.23
2022-09-28T21:01:44.638Z,15.17
2022-09-28T21:04:12.415Z,15.08
2022-09-28T21:06:41.662Z,15.08
2022-09-28T21:09:10.640Z,14.75
2022-09-28T21:11:38.896Z,14.56
2022-09-28T21:14:08.116Z,14.31
2022-09-28T21:16:35.790Z,14.41
2022-09-28T21:19:03.731Z,14.57
2022-09-28T21:21:31.096Z,14.38
2022-09-28T21:23:59.086Z,14.15
2022-09-28T21:26:28.269Z,14.44
2022-09-28T21:28:56.672Z,14.41
2022-09-28T21:31:28.784Z,14.62
2022-09-28T21:33:57.706Z,14.85
2022-09-28T21:36:25.774Z,14.82
2022-09-28T21:38:55.131Z,14.46
2022-09-28T21:41:23.715Z,14.24
2022-09-28T21:43:51.288Z,14.27
2022-09-28T21:46:18.805Z,14.48
2022-09-28T21:48:46.465Z,14.79
2022-09-28T21:51:14.862Z,15.11
2022-09-28T21:53:42.865Z,14.85
2022-09-28T21:56:11.697Z,15.08
2022-09-28T21:58:40.142Z,15.28
2022-09-28T22:01:16.552Z,15.45
2022-09-28T22:03:48.488Z,14.69
